createdAt,value
2023-02-14T00:00:16.844Z,102842.75
2023-02-14T00:06:13.880Z,102871.44
2023-02-14T00:08:49.993Z,102839.59
2023-02-14T00:11:26.780Z,102875.22
2023-02-14T00:14:13.263Z,102874.72
2023-02-14T00:16:40.846Z,102870.31
2023-02-14T00:19:09.335Z,102861.38
2023-02-14T00:21:38.483Z,102872.16
2023-02-14T00:24:19.388Z,102865.69
2023-02-14T00:26:57.408Z,102822.38
2023-02-14T00:33:09.898Z,102815.16
2023-02-14T00:35:51.281Z,102871.09
2023-02-14T00:38:35.247Z,102769.63
2023-02-14T00:44:05.293Z,102780.19
2023-02-14T00:46:53.607Z,102799.91
2023-02-14T00:49:48.032Z,102889.53
2023-02-14T00:52:49.921Z,102884.91
2023-02-14T00:55:22.570Z,102867.78
2023-02-14T00:57:51.360Z,102869.19
2023-02-14T01:00:19.029Z,102832.50
2023-02-14T01:02:47.081Z,102802.25
2023-02-14T01:05:14.559Z,102829.09
2023-02-14T01:07:41.997Z,102855.88
2023-02-14T01:10:11.515Z,102822.63
2023-02-14T01:12:51.632Z,102824.69
2023-02-14T01:15:36.986Z,102765.69
2023-02-14T01:18:15.927Z,102786.41
2023-02-14T01:20:50.437Z,102786.63
2023-02-14T01:23:21.487Z,102761.84
2023-02-14T01:26:05.802Z,102809.91
2023-02-14T01:32:01.529Z,102803.38
2023-02-14T01:34:42.526Z,102714.88
2023-02-14T01:37:13.871Z,102771.69
2023-02-14T01:39:49.335Z,102758.91
2023-02-14T01:42:23.340Z,102802.28
2023-02-14T01:45:01.949Z,102775.22
2023-02-14T01:48:08.172Z,102767.72
2023-02-14T01:50:57.001Z,102747.44
2023-02-14T01:53:39.218Z,102833.56
2023-02-14T01:56:21.754Z,102740.53
2023-02-14T01:58:58.899Z,102761.56
2023-02-14T02:01:34.688Z,102736.75
2023-02-14T02:04:18.217Z,102701.63
2023-02-14T02:07:00.307Z,102775.38
2023-02-14T02:09:37.825Z,102726.09
2023-02-14T02:12:20.178Z,102793.31
2023-02-14T02:14:58.719Z,102783.13
2023-02-14T02:17:59.160Z,102804.63
2023-02-14T02:20:49.289Z,102774.06
2023-02-14T02:27:18.624Z,102704.75
2023-02-14T02:30:11.947Z,102783.91
2023-02-14T02:33:19.335Z,102788.66
2023-02-14T02:36:25.130Z,102789.53
2023-02-14T02:39:05.882Z,102781.53
2023-02-14T02:41:51.195Z,102781.06
2023-02-14T02:44:36.027Z,102781.38
2023-02-14T02:47:23.241Z,102785.34
2023-02-14T02:50:24.779Z,102691.44
2023-02-14T02:53:09.027Z,102755.22
2023-02-14T02:56:17.332Z,102760.94
2023-02-14T02:58:54.729Z,102693.03
2023-02-14T03:01:40.785Z,102743.09
2023-02-14T03:04:30.986Z,102736.66
2023-02-14T03:07:01.375Z,102741.69
2023-02-14T03:09:32.429Z,102754.59
2023-02-14T03:12:17.887Z,102710.75
2023-02-14T03:15:08.267Z,102703.50
2023-02-14T03:17:47.601Z,102717.97
2023-02-14T03:20:45.961Z,102742.53
2023-02-14T03:23:24.933Z,102679.03
2023-02-14T03:26:05.555Z,102738.97
2023-02-14T03:28:53.164Z,102633.63
2023-02-14T03:31:21.196Z,102736.03
2023-02-14T03:34:32.329Z,102709.88
2023-02-14T03:37:31.965Z,102728.72
2023-02-14T03:40:36.701Z,102709.44
2023-02-14T03:43:11.835Z,102667.06
2023-02-14T03:45:53.092Z,102688.22
2023-02-14T03:48:24.539Z,102628.31
2023-02-14T03:50:56.344Z,102671.69
2023-02-14T03:53:32.913Z,102609.94
2023-02-14T03:56:23.365Z,102728.63
2023-02-14T03:59:00.802Z,102638.34
2023-02-14T04:01:42.194Z,102621.91
2023-02-14T04:04:15.993Z,102692.25
2023-02-14T04:06:48.377Z,102592.28
2023-02-14T04:09:20.081Z,102705.13
2023-02-14T04:11:51.480Z,102636.50
2023-02-14T04:14:24.807Z,102622.41
2023-02-14T04:17:16.963Z,102684.66
2023-02-14T04:19:50.610Z,102650.66
2023-02-14T04:22:22.748Z,102631.44
2023-02-14T04:27:57.989Z,102667.56
2023-02-14T04:33:50.262Z,102672.38
2023-02-14T04:36:30.103Z,102677.88
2023-02-14T04:39:05.998Z,102647.78
2023-02-14T04:42:03.098Z,102704.38
2023-02-14T04:44:39.543Z,102592.41
2023-02-14T04:47:10.754Z,102646.44
2023-02-14T04:49:43.726Z,102635.00
2023-02-14T04:52:18.062Z,102632.75
2023-02-14T04:54:49.392Z,102652.25
2023-02-14T04:57:17.852Z,102686.09
2023-02-14T04:59:45.406Z,102681.38
2023-02-14T05:02:13.059Z,102704.94
2023-02-14T05:04:40.637Z,102698.94
2023-02-14T05:07:08.076Z,102650.03
2023-02-14T05:09:35.512Z,102682.59
2023-02-14T05:12:02.995Z,102697.16
2023-02-14T05:14:30.288Z,102686.72
2023-02-14T05:16:57.632Z,102693.19
2023-02-14T05:19:24.846Z,102690.78
2023-02-14T05:21:52.068Z,102710.53
2023-02-14T05:24:19.515Z,102671.78
2023-02-14T05:26:46.922Z,102705.06
2023-02-14T05:29:14.286Z,102697.28
2023-02-14T05:31:41.834Z,102678.25
2023-02-14T05:34:09.163Z,102705.75
2023-02-14T05:36:36.474Z,102683.25
2023-02-14T05:39:04.773Z,102694.94
2023-02-14T05:41:32.285Z,102696.94
2023-02-14T05:43:59.480Z,102686.88
2023-02-14T05:46:26.917Z,102690.28
2023-02-14T05:48:54.268Z,102707.88
2023-02-14T05:51:21.543Z,102697.78
2023-02-14T05:53:48.813Z,102716.34
2023-02-14T05:56:16.343Z,102702.56
2023-02-14T05:58:44.189Z,102711.13
2023-02-14T06:01:11.950Z,102719.19
2023-02-14T06:03:39.321Z,102693.31
2023-02-14T06:06:07.661Z,102667.94
2023-02-14T06:08:39.576Z,102626.44
2023-02-14T06:11:09.516Z,102700.09
2023-02-14T06:13:41.355Z,102711.94
2023-02-14T06:16:16.749Z,102695.25
2023-02-14T06:18:59.720Z,102691.34
2023-02-14T06:21:32.422Z,102719.81
2023-02-14T06:24:00.805Z,102748.84
2023-02-14T06:26:30.091Z,102752.53
2023-02-14T06:29:02.634Z,102676.81
2023-02-14T06:31:33.603Z,102745.34
2023-02-14T06:34:07.863Z,102699.75
2023-02-14T06:36:42.352Z,102708.84
2023-02-14T06:39:18.095Z,102697.06
2023-02-14T06:41:49.061Z,102700.53
2023-02-14T06:44:21.625Z,102666.41
2023-02-14T06:46:52.929Z,102633.50
2023-02-14T06:49:24.189Z,102629.28
2023-02-14T06:51:58.606Z,102659.97
2023-02-14T06:54:29.999Z,102708.75
2023-02-14T06:56:59.681Z,102679.84
2023-02-14T06:59:33.776Z,102728.44
2023-02-14T07:02:06.029Z,102721.63
2023-02-14T07:04:36.269Z,102674.97
2023-02-14T07:07:07.612Z,102739.63
2023-02-14T07:09:38.796Z,102715.13
2023-02-14T07:12:09.575Z,102727.72
2023-02-14T07:14:38.308Z,102676.03
2023-02-14T07:17:07.086Z,102668.75
2023-02-14T07:19:42.199Z,102663.97
2023-02-14T07:22:18.231Z,102750.63
2023-02-14T07:24:48.203Z,102662.16
2023-02-14T07:27:19.137Z,102688.63
2023-02-14T07:29:47.461Z,102659.03
2023-02-14T07:32:18.007Z,102628.38
2023-02-14T07:34:49.192Z,102686.25
2023-02-14T07:37:20.977Z,102688.41
2023-02-14T07:39:54.403Z,102705.06
2023-02-14T07:42:26.607Z,102661.03
2023-02-14T07:44:57.634Z,102720.19
2023-02-14T07:47:29.335Z,102685.81
2023-02-14T07:49:59.898Z,102610.59
2023-02-14T07:52:29.497Z,102612.63
2023-02-14T07:57:41.960Z,102692.34
2023-02-14T08:00:12.506Z,102688.41
2023-02-14T08:05:39.600Z,102646.34
2023-02-14T08:08:15.986Z,102699.78
2023-02-14T08:10:43.713Z,102684.38
2023-02-14T08:13:11.400Z,102732.50
2023-02-14T08:15:59.206Z,102681.19
2023-02-14T08:18:30.053Z,102664.63
2023-02-14T08:21:00.362Z,102629.81
2023-02-14T08:23:29.287Z,102615.72
2023-02-14T08:25:58.726Z,102679.63
2023-02-14T08:28:30.623Z,102662.66
2023-02-14T08:31:02.533Z,102612.56
2023-02-14T08:33:35.227Z,102602.09
2023-02-14T08:36:05.367Z,102652.97
2023-02-14T08:38:33.437Z,102665.13
2023-02-14T08:41:05.224Z,102625.50
2023-02-14T08:43:35.785Z,102657.03
2023-02-14T08:46:03.973Z,102702.28
2023-02-14T08:51:17.145Z,102688.50
2023-02-14T08:53:47.354Z,102659.44
2023-02-14T08:56:15.638Z,102676.41
2023-02-14T08:58:42.972Z,102664.72
2023-02-14T09:01:12.221Z,102682.88
2023-02-14T09:03:42.129Z,102712.38
2023-02-14T09:06:18.526Z,102654.59
2023-02-14T09:08:46.906Z,102703.88
2023-02-14T09:11:20.579Z,102713.97
2023-02-14T09:13:51.781Z,102663.50
2023-02-14T09:16:21.272Z,102684.09
2023-02-14T09:18:50.559Z,102720.06
2023-02-14T09:21:23.158Z,102664.69
2023-02-14T09:23:50.651Z,102696.59
2023-02-14T09:26:19.589Z,102666.31
2023-02-14T09:28:47.490Z,102714.41
2023-02-14T09:31:20.799Z,102646.50
2023-02-14T09:33:52.954Z,102707.94
2023-02-14T09:36:21.859Z,102676.00
2023-02-14T09:38:49.789Z,102719.25
2023-02-14T09:41:30.376Z,102708.72
2023-02-14T09:44:25.425Z,102577.84
2023-02-14T09:46:59.900Z,102686.91
2023-02-14T09:49:34.717Z,102683.69
2023-02-14T09:52:04.245Z,102679.19
2023-02-14T09:54:35.639Z,102657.81
2023-02-14T09:57:33.567Z,102687.59
2023-02-14T10:00:07.340Z,102689.59
2023-02-14T10:02:40.628Z,102697.34
2023-02-14T10:05:23.480Z,102679.56
2023-02-14T10:08:00.124Z,102676.31
2023-02-14T10:10:44.620Z,102693.28
2023-02-14T10:13:27.388Z,102679.47
2023-02-14T10:16:06.073Z,102683.44
2023-02-14T10:19:22.263Z,102668.78
2023-02-14T10:22:04.012Z,102655.13
2023-02-14T10:24:39.799Z,102650.22
2023-02-14T10:27:26.718Z,102678.38
2023-02-14T10:29:54.093Z,102672.41
2023-02-14T10:32:38.167Z,102629.59
2023-02-14T10:35:28.753Z,102657.38
2023-02-14T10:38:08.450Z,102658.25
2023-02-14T10:41:14.045Z,102619.50
2023-02-14T10:44:00.962Z,102647.69
2023-02-14T10:46:57.355Z,102640.34
2023-02-14T10:49:51.501Z,102637.53
2023-02-14T10:52:38.076Z,102653.34
2023-02-14T10:55:32.393Z,102641.13
2023-02-14T10:58:04.391Z,102594.81
2023-02-14T11:00:38.011Z,102567.56
2023-02-14T11:03:08.910Z,102624.91
2023-02-14T11:05:43.781Z,102628.38
2023-02-14T11:08:27.364Z,102611.63
2023-02-14T11:11:19.180Z,102626.00
2023-02-14T11:13:47.024Z,102624.03
2023-02-14T11:16:41.004Z,102617.06
2023-02-14T11:19:10.093Z,102610.94
2023-02-14T11:21:40.133Z,102604.56
2023-02-14T11:24:19.507Z,102574.72
2023-02-14T11:26:50.078Z,102592.09
2023-02-14T11:29:26.674Z,102587.28
2023-02-14T11:31:54.963Z,102582.34
2023-02-14T11:34:37.161Z,102590.63
2023-02-14T11:37:28.449Z,102582.44
2023-02-14T11:39:59.788Z,102572.72
2023-02-14T11:42:43.553Z,102556.59
2023-02-14T11:45:28.851Z,102571.53
2023-02-14T11:48:37.097Z,102567.81
2023-02-14T11:51:10.997Z,102565.31
2023-02-14T11:53:56.175Z,102571.09
2023-02-14T11:56:24.535Z,102557.03
2023-02-14T11:58:58.326Z,102561.13
2023-02-14T12:01:35.246Z,102554.19
2023-02-14T12:04:15.369Z,102532.50
2023-02-14T12:06:44.535Z,102527.38
2023-02-14T12:09:23.937Z,102558.78
2023-02-14T12:12:04.733Z,102551.41
2023-02-14T12:14:36.084Z,102568.63
2023-02-14T12:17:12.687Z,102557.94
2023-02-14T12:20:13.013Z,102545.84
2023-02-14T12:22:54.383Z,102550.06
2023-02-14T12:25:48.594Z,102563.34
2023-02-14T12:28:31.058Z,102545.34
2023-02-14T12:30:58.947Z,102543.59
2023-02-14T12:33:26.748Z,102545.41
2023-02-14T12:36:09.270Z,102550.13
2023-02-14T12:39:03.124Z,102554.69
2023-02-14T12:41:40.584Z,102501.06
2023-02-14T12:44:24.428Z,102550.84
2023-02-14T12:47:11.344Z,102522.31
2023-02-14T12:50:03.219Z,102532.31
2023-02-14T12:52:53.179Z,102539.22
2023-02-14T12:55:35.694Z,102544.28
2023-02-14T12:58:11.236Z,102504.53
2023-02-14T13:00:47.625Z,102537.53
2023-02-14T13:03:39.480Z,102533.53
2023-02-14T13:06:33.833Z,102532.84
2023-02-14T13:09:19.590Z,102521.38
2023-02-14T13:12:13.406Z,102524.09
2023-02-14T13:15:14.451Z,102525.41
2023-02-14T13:17:50.840Z,102527.16
2023-02-14T13:20:39.801Z,102521.25
2023-02-14T13:23:16.373Z,102529.41
2023-02-14T13:26:22.411Z,102524.50
2023-02-14T13:29:01.974Z,102515.84
2023-02-14T13:31:29.534Z,102496.88
2023-02-14T13:34:23.144Z,102512.53
2023-02-14T13:36:51.109Z,102515.44
2023-02-14T13:39:49.177Z,102524.19
2023-02-14T13:42:48.040Z,102523.44
2023-02-14T13:45:35.204Z,102528.44
2023-02-14T13:48:13.156Z,102494.66
2023-02-14T13:51:02.395Z,102526.00
2023-02-14T13:53:42.584Z,102503.44
2023-02-14T13:56:12.883Z,102534.81
2023-02-14T13:58:53.359Z,102532.75
2023-02-14T14:01:41.978Z,102531.94
2023-02-14T14:04:31.947Z,102541.19
2023-02-14T14:07:05.313Z,102525.34
2023-02-14T14:09:44.608Z,102534.72
2023-02-14T14:12:27.206Z,102522.56
2023-02-14T14:15:06.889Z,102526.69
2023-02-14T14:17:40.239Z,102484.19
2023-02-14T14:20:16.924Z,102525.22
2023-02-14T14:22:55.433Z,102504.41
2023-02-14T14:25:41.187Z,102506.72
2023-02-14T14:28:23.364Z,102518.88
2023-02-14T14:30:51.716Z,102514.06
2023-02-14T14:33:25.831Z,102523.00
2023-02-14T14:36:03.019Z,102526.41
2023-02-14T14:38:31.959Z,102474.03
2023-02-14T14:41:01.288Z,102529.63
2023-02-14T14:43:31.396Z,102523.97
2023-02-14T14:46:02.663Z,102521.59
2023-02-14T14:48:40.383Z,102528.03
2023-02-14T14:51:15.258Z,102531.28
2023-02-14T14:53:53.458Z,102515.94
2023-02-14T14:56:27.532Z,102530.94
2023-02-14T14:58:55.816Z,102535.13
2023-02-14T15:01:37.593Z,102511.50
2023-02-14T15:04:13.558Z,102503.75
2023-02-14T15:06:42.714Z,102499.81
2023-02-14T15:09:23.746Z,102504.28
2023-02-14T15:12:13.318Z,102507.13
2023-02-14T15:14:44.282Z,102494.63
2023-02-14T15:17:22.549Z,102507.19
2023-02-14T15:20:10.482Z,102484.19
2023-02-14T15:22:46.139Z,102543.09
2023-02-14T15:25:28.023Z,102477.34
2023-02-14T15:27:59.067Z,102529.78
2023-02-14T15:30:31.736Z,102541.53
2023-02-14T15:33:02.756Z,102546.34
2023-02-14T15:35:36.707Z,102534.28
2023-02-14T15:38:07.240Z,102546.78
2023-02-14T15:40:35.882Z,102538.31
2023-02-14T15:43:24.664Z,102552.84
2023-02-14T15:45:58.940Z,102553.66
2023-02-14T15:48:30.898Z,102563.34
2023-02-14T15:51:02.577Z,102464.88
2023-02-14T15:53:44.566Z,102562.53
2023-02-14T15:56:26.506Z,102565.78
2023-02-14T15:59:29.875Z,102571.41
2023-02-14T16:02:02.129Z,102561.69
2023-02-14T16:04:34.440Z,102562.53
2023-02-14T16:07:08.092Z,102576.25
2023-02-14T16:09:36.825Z,102526.97
2023-02-14T16:12:31.037Z,102574.22
2023-02-14T16:15:22.314Z,102497.03
2023-02-14T16:17:54.069Z,102535.81
2023-02-14T16:20:27.066Z,102584.28
2023-02-14T16:23:28.789Z,102593.50
2023-02-14T16:26:05.016Z,102566.91
2023-02-14T16:28:49.719Z,102608.84
2023-02-14T16:31:21.099Z,102463.81
2023-02-14T16:36:37.280Z,102551.88
2023-02-14T16:39:06.461Z,102512.25
2023-02-14T16:41:36.586Z,102589.84
2023-02-14T16:44:13.044Z,102482.22
2023-02-14T16:46:43.050Z,102533.97
2023-02-14T16:49:10.645Z,102563.06
2023-02-14T16:51:39.550Z,102625.25
2023-02-14T16:54:08.874Z,102591.34
2023-02-14T16:56:39.695Z,102623.59
2023-02-14T16:59:07.335Z,102530.72
2023-02-14T17:01:34.595Z,102617.19
2023-02-14T17:04:01.815Z,102590.50
2023-02-14T17:06:36.861Z,102556.09
2023-02-14T17:09:09.974Z,102562.91
2023-02-14T17:11:41.931Z,102612.31
2023-02-14T17:14:12.995Z,102554.84
2023-02-14T17:16:42.152Z,102544.59
2023-02-14T17:19:11.384Z,102557.25
2023-02-14T17:21:38.870Z,102558.84
2023-02-14T17:24:06.281Z,102620.28
2023-02-14T17:26:34.050Z,102601.31
2023-02-14T17:29:01.360Z,102586.34
2023-02-14T17:31:28.811Z,102583.03
2023-02-14T17:33:56.292Z,102598.81
2023-02-14T17:36:24.296Z,102591.91
2023-02-14T17:38:53.536Z,102587.84
2023-02-14T17:41:23.591Z,102613.22
2023-02-14T17:43:53.139Z,102575.50
2023-02-14T17:46:21.437Z,102615.97
2023-02-14T17:48:49.716Z,102609.44
2023-02-14T17:51:20.514Z,102610.41
2023-02-14T17:53:49.138Z,102607.88
2023-02-14T17:56:19.462Z,102611.56
2023-02-14T17:58:48.569Z,102601.94
2023-02-14T18:01:18.048Z,102602.28
2023-02-14T18:03:45.989Z,102600.72
2023-02-14T18:06:14.483Z,102570.03
2023-02-14T18:08:49.884Z,102588.06
2023-02-14T18:11:18.779Z,102600.59
2023-02-14T18:13:46.616Z,102601.09
2023-02-14T18:16:16.610Z,102596.25
2023-02-14T18:18:44.510Z,102564.50
2023-02-14T18:21:14.120Z,102558.31
2023-02-14T18:23:41.734Z,102593.22
2023-02-14T18:26:13.566Z,102594.13
2023-02-14T18:28:42.377Z,102584.50
2023-02-14T18:31:15.987Z,102530.97
2023-02-14T18:33:43.982Z,102541.59
2023-02-14T18:36:14.202Z,102586.34
2023-02-14T18:38:43.016Z,102596.59
2023-02-14T18:41:12.783Z,102596.25
2023-02-14T18:43:44.667Z,102575.31
2023-02-14T18:46:14.905Z,102597.91
2023-02-14T18:48:42.564Z,102574.78
2023-02-14T18:51:16.056Z,102531.69
2023-02-14T18:53:44.923Z,102605.13
2023-02-14T18:56:17.920Z,102569.94
2023-02-14T18:58:48.254Z,102558.72
2023-02-14T19:01:18.700Z,102555.31
2023-02-14T19:03:46.161Z,102584.66
2023-02-14T19:06:13.774Z,102585.91
2023-02-14T19:08:41.153Z,102584.06
2023-02-14T19:11:13.329Z,102581.25
2023-02-14T19:13:45.544Z,102586.47
2023-02-14T19:16:16.387Z,102589.63
2023-02-14T19:18:43.659Z,102585.81
2023-02-14T19:21:15.852Z,102546.59
2023-02-14T19:23:43.990Z,102573.28
2023-02-14T19:26:23.577Z,102599.41
2023-02-14T19:28:55.946Z,102578.47
2023-02-14T19:31:23.667Z,102602.84
2023-02-14T19:33:51.744Z,102596.03
2023-02-14T19:36:22.411Z,102598.16
2023-02-14T19:41:36.807Z,102591.78
2023-02-14T19:44:05.653Z,102610.19
2023-02-14T19:46:33.403Z,102610.75
2023-02-14T19:49:01.847Z,102606.09
2023-02-14T19:51:36.199Z,102601.22
2023-02-14T19:54:05.874Z,102591.69
2023-02-14T19:56:41.527Z,102585.19
2023-02-14T19:59:09.706Z,102611.88
2023-02-14T20:01:43.393Z,102622.34
2023-02-14T20:04:14.834Z,102619.13
2023-02-14T20:06:43.073Z,102589.72
2023-02-14T20:09:10.815Z,102618.50
2023-02-14T20:11:46.710Z,102605.72
2023-02-14T20:14:14.647Z,102626.72
2023-02-14T20:16:41.920Z,102621.06
2023-02-14T20:19:13.017Z,102624.91
2023-02-14T20:21:59.412Z,102632.16
2023-02-14T20:24:29.365Z,102620.75
2023-02-14T20:26:56.927Z,102638.91
2023-02-14T20:29:25.604Z,102633.34
2023-02-14T20:31:55.643Z,102636.09
2023-02-14T20:34:22.890Z,102633.63
2023-02-14T20:36:53.302Z,102628.69
2023-02-14T20:39:22.644Z,102627.84
2023-02-14T20:41:50.424Z,102639.81
2023-02-14T20:44:22.318Z,102645.81
2023-02-14T20:46:51.945Z,102641.03
2023-02-14T20:49:21.125Z,102653.22
2023-02-14T20:51:52.600Z,102640.78
2023-02-14T20:54:22.688Z,102652.50
2023-02-14T20:56:50.967Z,102653.81
2023-02-14T20:59:27.301Z,102629.50
2023-02-14T21:01:56.882Z,102649.41
2023-02-14T21:04:25.152Z,102651.38
2023-02-14T21:06:52.519Z,102643.72
2023-02-14T21:09:20.921Z,102656.22
2023-02-14T21:11:48.180Z,102664.72
2023-02-14T21:14:17.525Z,102670.03
2023-02-14T21:16:45.021Z,102666.69
2023-02-14T21:19:12.115Z,102679.03
2023-02-14T21:21:39.840Z,102681.88
2023-02-14T21:24:13.331Z,102663.72
2023-02-14T21:26:41.584Z,102676.41
2023-02-14T21:29:09.845Z,102665.00
2023-02-14T21:31:37.923Z,102658.94
2023-02-14T21:34:05.611Z,102666.50
2023-02-14T21:36:37.206Z,102640.88
2023-02-14T21:39:06.411Z,102667.56
2023-02-14T21:41:34.514Z,102670.03
2023-02-14T21:44:03.541Z,102672.59
2023-02-14T21:46:38.719Z,102648.13
2023-02-14T21:49:25.188Z,102659.09
2023-02-14T21:51:52.685Z,102667.38
2023-02-14T21:54:20.017Z,102679.06
2023-02-14T21:56:49.347Z,102669.09
2023-02-14T21:59:16.679Z,102671.31
2023-02-14T22:01:43.885Z,102691.75
2023-02-14T22:04:12.495Z,102679.63
2023-02-14T22:06:41.983Z,102693.56
2023-02-14T22:09:11.074Z,102691.19
2023-02-14T22:11:38.495Z,102648.78
2023-02-14T22:14:06.329Z,102651.03
2023-02-14T22:16:33.855Z,102645.00
2023-02-14T22:19:01.667Z,102633.88
2023-02-14T22:21:31.233Z,102653.63
2023-02-14T22:23:58.340Z,102685.50
2023-02-14T22:26:28.217Z,102711.44
2023-02-14T22:28:59.342Z,102715.81
2023-02-14T22:31:30.759Z,102689.94
2023-02-14T22:33:58.269Z,102718.25
2023-02-14T22:36:25.671Z,102714.50
2023-02-14T22:38:52.996Z,102712.00
2023-02-14T22:41:22.802Z,102727.25
2023-02-14T22:43:50.865Z,102724.34
2023-02-14T22:46:23.847Z,102710.13
2023-02-14T22:48:52.828Z,102691.28
2023-02-14T22:51:26.642Z,102724.56
2023-02-14T22:53:56.709Z,102732.78
2023-02-14T22:56:38.936Z,102721.94
2023-02-14T22:59:28.336Z,102726.84
2023-02-14T23:01:56.010Z,102719.22
2023-02-14T23:04:29.655Z,102683.53
2023-02-14T23:06:57.337Z,102706.63
2023-02-14T23:09:25.284Z,102736.34
2023-02-14T23:11:52.802Z,102717.25
2023-02-14T23:14:39.409Z,102714.19
2023-02-14T23:17:19.105Z,102701.75
2023-02-14T23:20:05.270Z,102730.03
2023-02-14T23:22:33.793Z,102727.59
2023-02-14T23:25:03.896Z,102722.72
2023-02-14T23:27:38.830Z,102725.25
2023-02-14T23:30:08.802Z,102686.72
2023-02-14T23:32:36.365Z,102720.44
2023-02-14T23:35:03.877Z,102738.16
2023-02-14T23:37:31.253Z,102662.75
2023-02-14T23:39:58.598Z,102676.13
2023-02-14T23:42:26.105Z,102646.59
2023-02-14T23:44:53.311Z,102720.19
2023-02-14T23:47:20.614Z,102694.47
2023-02-14T23:49:47.811Z,102713.31
2023-02-14T23:52:15.077Z,102742.34
2023-02-14T23:54:42.519Z,102737.47
2023-02-14T23:57:09.954Z,102689.91
2023-02-14T23:59:37.328Z,102720.97
